createdAt,value
2019-04-04T00:03:01.782Z,99017.87
2019-04-04T00:06:03.735Z,99004.11
2019-04-04T00:09:09.046Z,99013.44
2019-04-04T00:12:10.949Z,99007.95
2019-04-04T00:15:14.765Z,99008.36
2019-04-04T00:18:16.870Z,98990.28
2019-04-04T00:21:18.870Z,99005.20
2019-04-04T00:24:20.989Z,99004.52
2019-04-04T00:27:22.997Z,99003.55
2019-04-04T00:30:24.907Z,98993.11
2019-04-04T00:33:26.850Z,98987.37
2019-04-04T00:36:28.802Z,98984.11
2019-04-04T00:39:31.785Z,98994.06
2019-04-04T00:42:33.760Z,98978.53
2019-04-04T00:45:35.671Z,98973.37
2019-04-04T00:48:37.715Z,98974.86
2019-04-04T00:51:39.669Z,98973.52
2019-04-04T00:54:44.640Z,98975.45
2019-04-04T00:57:45.673Z,98973.80
2019-04-04T01:00:47.627Z,98968.60
2019-04-04T01:03:49.554Z,98969.12
2019-04-04T01:06:51.511Z,98969.97
2019-04-04T01:09:53.427Z,98970.82
2019-04-04T01:12:55.404Z,98970.58
2019-04-04T01:15:57.311Z,98965.69
2019-04-04T01:18:59.629Z,98965.77
2019-04-04T01:22:01.560Z,98970.58
2019-04-04T01:25:05.473Z,98972.41
2019-04-04T01:28:08.121Z,98957.79
2019-04-04T01:31:10.749Z,98963.34
2019-04-04T01:34:12.674Z,98954.06
2019-04-04T01:37:14.637Z,98956.87
2019-04-04T01:40:16.779Z,98948.37
2019-04-04T01:43:18.720Z,98952.20
2019-04-04T01:46:20.687Z,98950.83
2019-04-04T01:49:22.669Z,98950.80
2019-04-04T01:52:27.734Z,98948.30
2019-04-04T01:55:30.505Z,98942.05
2019-04-04T01:58:32.456Z,98946.19
2019-04-04T02:01:34.391Z,98944.67
2019-04-04T02:04:36.364Z,98937.39
2019-04-04T02:07:38.317Z,98934.19
2019-04-04T02:10:41.474Z,98933.69
2019-04-04T02:13:43.447Z,98934.00
2019-04-04T02:16:48.511Z,98931.30
2019-04-04T02:19:49.353Z,98934.31
2019-04-04T02:22:51.652Z,98929.64
2019-04-04T02:25:54.663Z,98930.48
2019-04-04T02:28:56.604Z,98927.81
2019-04-04T02:32:03.076Z,98927.81
2019-04-04T02:35:10.306Z,98924.05
2019-04-04T02:38:10.923Z,98926.78
2019-04-04T02:41:15.539Z,98928.42
2019-04-04T02:44:17.110Z,98926.81
2019-04-04T02:47:19.087Z,98921.67
2019-04-04T02:50:21.085Z,98916.51
2019-04-04T02:53:22.995Z,98923.16
2019-04-04T02:56:24.915Z,98916.39
2019-04-04T02:59:26.861Z,98913.38
2019-04-04T03:02:28.864Z,98909.22
2019-04-04T03:05:30.924Z,98906.15
2019-04-04T03:08:36.550Z,98911.96
2019-04-04T03:11:37.748Z,98906.55
2019-04-04T03:14:39.663Z,98902.80
2019-04-04T03:17:41.665Z,98898.73
2019-04-04T03:20:43.810Z,98897.92
2019-04-04T03:23:45.780Z,98896.49
2019-04-04T03:26:52.298Z,98897.27
2019-04-04T03:29:51.545Z,98894.81
2019-04-04T03:32:54.967Z,98896.19
2019-04-04T03:36:00.130Z,98890.18
2019-04-04T03:39:01.401Z,98892.67
2019-04-04T03:42:06.959Z,98893.76
2019-04-04T03:45:07.336Z,98897.86
2019-04-04T03:48:09.260Z,98890.49
2019-04-04T03:51:11.275Z,98896.49
2019-04-04T03:54:15.147Z,98893.76
2019-04-04T03:57:17.355Z,98893.84
2019-04-04T04:00:29.541Z,98896.88
2019-04-04T04:03:31.574Z,98893.92
2019-04-04T04:06:33.516Z,98897.27
2019-04-04T04:09:36.838Z,98899.19
2019-04-04T04:12:42.599Z,98902.98
2019-04-04T04:15:42.728Z,98900.81
2019-04-04T04:18:44.686Z,98894.78
2019-04-04T04:21:46.802Z,98900.81
2019-04-04T04:24:48.715Z,98905.80
2019-04-04T04:27:50.784Z,98904.20
2019-04-04T04:30:52.828Z,98909.70
2019-04-04T04:33:54.926Z,98902.98
2019-04-04T04:36:56.876Z,98906.86
2019-04-04T04:39:58.838Z,98909.91
2019-04-04T04:43:00.999Z,98910.25
2019-04-04T04:46:03.115Z,98907.75
2019-04-04T04:49:05.060Z,98909.42
2019-04-04T04:52:07.080Z,98903.67
2019-04-04T04:55:12.018Z,98904.77
2019-04-04T04:58:16.105Z,98901.44
2019-04-04T05:01:19.031Z,98905.70
2019-04-04T05:04:21.385Z,98905.81
2019-04-04T05:07:23.491Z,98903.11
2019-04-04T05:10:25.525Z,98905.42
2019-04-04T05:13:28.869Z,98902.25
2019-04-04T05:16:31.428Z,98900.84
2019-04-04T05:19:33.423Z,98901.73
2019-04-04T05:22:35.674Z,98905.54
2019-04-04T05:25:51.673Z,98899.83
2019-04-04T05:28:42.119Z,98910.06
2019-04-04T05:31:44.759Z,98911.80
2019-04-04T05:34:46.700Z,98908.66
2019-04-04T05:37:48.720Z,98905.66
2019-04-04T05:40:53.260Z,98907.42
2019-04-04T05:43:55.906Z,98907.34
2019-04-04T05:46:57.817Z,98904.81
2019-04-04T05:49:59.785Z,98898.35
2019-04-04T05:53:02.117Z,98898.42
2019-04-04T05:56:06.419Z,98899.80
2019-04-04T05:59:09.041Z,98892.00
2019-04-04T06:02:11.418Z,98889.91
2019-04-04T06:05:14.111Z,98895.89
2019-04-04T06:08:16.095Z,98897.34
2019-04-04T06:11:20.847Z,98891.94
2019-04-04T06:14:22.004Z,98890.22
2019-04-04T06:17:26.924Z,98887.20
2019-04-04T06:20:27.841Z,98897.23
2019-04-04T06:23:29.915Z,98890.00
2019-04-04T06:26:32.003Z,98894.88
2019-04-04T06:29:33.983Z,98888.66
2019-04-04T06:32:38.707Z,98886.00
2019-04-04T06:35:40.127Z,98879.95
2019-04-04T06:38:42.396Z,98885.78
2019-04-04T06:41:44.376Z,98885.64
2019-04-04T06:44:48.041Z,98880.63
2019-04-04T06:47:50.044Z,98877.00
2019-04-04T06:50:52.009Z,98886.22
2019-04-04T06:53:54.554Z,98881.30
2019-04-04T06:56:59.062Z,98883.69
2019-04-04T07:00:00.664Z,98879.67
2019-04-04T07:03:02.658Z,98865.58
2019-04-04T07:06:04.633Z,98862.94
2019-04-04T07:09:06.851Z,98863.36
2019-04-04T07:12:20.336Z,98865.09
2019-04-04T07:15:15.723Z,98861.72
2019-04-04T07:18:16.755Z,98869.39
2019-04-04T07:21:20.192Z,98866.33
2019-04-04T07:24:22.705Z,98879.59
2019-04-04T07:27:24.727Z,98870.21
2019-04-04T07:30:28.424Z,98865.36
2019-04-04T07:33:30.661Z,98858.92
2019-04-04T07:36:32.652Z,98865.73
2019-04-04T07:39:34.587Z,98849.94
2019-04-04T07:42:36.511Z,98869.16
2019-04-04T07:45:38.479Z,98864.22
2019-04-04T07:48:40.469Z,98851.75
2019-04-04T07:51:42.432Z,98854.53
2019-04-04T07:54:44.489Z,98854.98
2019-04-04T07:57:46.430Z,98851.76
2019-04-04T08:00:48.954Z,98856.20
2019-04-04T08:03:50.994Z,98845.75
2019-04-04T08:06:52.913Z,98842.89
2019-04-04T08:09:54.964Z,98853.86
2019-04-04T08:12:56.974Z,98854.72
2019-04-04T08:15:58.919Z,98855.22
2019-04-04T08:19:00.878Z,98868.77
2019-04-04T08:22:02.978Z,98864.45
2019-04-04T08:25:05.259Z,98863.22
2019-04-04T08:28:07.192Z,98850.13
2019-04-04T08:31:09.928Z,98850.00
2019-04-04T08:34:12.276Z,98849.11
2019-04-04T08:37:14.252Z,98847.47
2019-04-04T08:40:16.227Z,98831.78
2019-04-04T08:43:18.275Z,98845.42
2019-04-04T08:46:20.348Z,98848.53
2019-04-04T08:49:22.479Z,98853.74
2019-04-04T08:52:24.390Z,98841.33
2019-04-04T08:55:26.481Z,98838.39
2019-04-04T08:58:28.391Z,98834.05
2019-04-04T09:01:30.757Z,98854.25
2019-04-04T09:04:32.727Z,98843.23
2019-04-04T09:07:34.714Z,98830.86
2019-04-04T09:10:36.741Z,98841.24
2019-04-04T09:13:38.750Z,98831.40
2019-04-04T09:16:41.733Z,98838.76
2019-04-04T09:19:43.733Z,98823.07
2019-04-04T09:22:45.668Z,98820.21
2019-04-04T09:25:47.806Z,98811.88
2019-04-04T09:28:49.797Z,98814.20
2019-04-04T09:31:51.677Z,98821.05
2019-04-04T09:34:53.681Z,98821.89
2019-04-04T09:37:55.636Z,98812.89
2019-04-04T09:40:57.672Z,98799.36
2019-04-04T09:43:59.674Z,98813.27
2019-04-04T09:47:05.721Z,98810.02
2019-04-04T09:50:06.783Z,98826.77
2019-04-04T09:53:08.748Z,98813.55
2019-04-04T09:56:12.011Z,98801.88
2019-04-04T09:59:15.067Z,98804.52
2019-04-04T10:02:19.924Z,98802.67
2019-04-04T10:05:21.884Z,98801.94
2019-04-04T10:08:23.917Z,98800.11
2019-04-04T10:11:25.880Z,98787.84
2019-04-04T10:14:27.809Z,98781.78
2019-04-04T10:17:29.764Z,98792.77
2019-04-04T10:20:31.747Z,98789.75
2019-04-04T10:23:33.709Z,98780.67
2019-04-04T10:26:35.846Z,98775.31
2019-04-04T10:29:37.877Z,98774.61
2019-04-04T10:32:39.895Z,98778.30
2019-04-04T10:35:41.906Z,98781.01
2019-04-04T10:38:43.860Z,98778.72
2019-04-04T10:41:45.752Z,98776.67
2019-04-04T10:44:47.779Z,98774.70
2019-04-04T10:47:49.713Z,98774.85
2019-04-04T10:50:51.723Z,98774.91
2019-04-04T10:53:53.677Z,98778.52
2019-04-04T10:56:55.719Z,98766.00
2019-04-04T10:59:57.681Z,98765.59
2019-04-04T11:02:59.913Z,98769.21
2019-04-04T11:06:01.802Z,98772.80
2019-04-04T11:09:06.434Z,98770.16
2019-04-04T11:12:08.407Z,98765.30
2019-04-04T11:15:10.364Z,98773.48
2019-04-04T11:18:12.312Z,98761.59
2019-04-04T11:21:14.556Z,98766.31
2019-04-04T11:24:16.746Z,98776.70
2019-04-04T11:27:18.895Z,98762.69
2019-04-04T11:30:20.947Z,98780.19
2019-04-04T11:33:22.894Z,98761.06
2019-04-04T11:36:24.894Z,98773.24
2019-04-04T11:39:26.850Z,98759.05
2019-04-04T11:42:28.870Z,98761.42
2019-04-04T11:45:30.850Z,98749.52
2019-04-04T11:48:32.890Z,98737.55
2019-04-04T11:51:34.816Z,98752.31
2019-04-04T11:54:38.688Z,98755.41
2019-04-04T11:57:40.730Z,98744.52
2019-04-04T12:00:44.566Z,98750.09
2019-04-04T12:03:47.179Z,98752.24
2019-04-04T12:06:49.184Z,98741.47
2019-04-04T12:09:51.110Z,98737.50
2019-04-04T12:12:53.055Z,98748.33
2019-04-04T12:15:54.957Z,98738.08
2019-04-04T12:18:57.011Z,98738.02
2019-04-04T12:21:58.914Z,98736.30
2019-04-04T12:25:01.479Z,98733.09
2019-04-04T12:28:03.630Z,98735.51
2019-04-04T12:31:05.650Z,98743.51
2019-04-04T12:34:07.605Z,98727.97
2019-04-04T12:37:09.563Z,98734.61
2019-04-04T12:40:20.403Z,98739.53
2019-04-04T12:43:15.554Z,98725.19
2019-04-04T12:46:17.534Z,98713.81
2019-04-04T12:49:19.500Z,98721.69
2019-04-04T12:52:21.728Z,98721.69
2019-04-04T12:55:23.727Z,98709.50
2019-04-04T12:58:25.771Z,98709.50
2019-04-04T13:01:27.761Z,98733.30
2019-04-04T13:04:31.871Z,98709.62
2019-04-04T13:07:33.562Z,98719.91
2019-04-04T13:10:35.565Z,98703.73
2019-04-04T13:13:38.338Z,98703.73
2019-04-04T13:16:40.950Z,98700.78
2019-04-04T13:19:42.864Z,98703.68
2019-04-04T13:22:46.153Z,98707.20
2019-04-04T13:25:48.125Z,98699.92
2019-04-04T13:28:50.263Z,98697.02
2019-04-04T13:31:52.253Z,98698.70
2019-04-04T13:34:59.492Z,98698.70
2019-04-04T13:37:58.172Z,98709.56
2019-04-04T13:41:00.141Z,98706.22
2019-04-04T13:44:02.118Z,98709.41
2019-04-04T13:47:04.343Z,98699.97
2019-04-04T13:50:08.095Z,98699.97
2019-04-04T13:53:10.169Z,98691.84
2019-04-04T13:56:12.171Z,98707.98
2019-04-04T13:59:14.198Z,98704.25
2019-04-04T14:02:16.180Z,98705.00
2019-04-04T14:05:18.168Z,98704.13
2019-04-04T14:08:20.155Z,98704.13
2019-04-04T14:11:22.171Z,98699.82
2019-04-04T14:14:24.127Z,98708.70
2019-04-04T14:17:26.813Z,98707.70
2019-04-04T14:20:28.774Z,98698.41
2019-04-04T14:23:30.775Z,98695.63
2019-04-04T14:26:32.743Z,98695.63
2019-04-04T14:29:36.252Z,98693.79
2019-04-04T14:32:38.251Z,98693.79
2019-04-04T14:35:40.504Z,98704.95
2019-04-04T14:38:42.577Z,98689.28
2019-04-04T14:41:44.530Z,98689.28
2019-04-04T14:44:46.536Z,98692.03
2019-04-04T14:47:48.536Z,98697.55
2019-04-04T14:50:50.507Z,98688.65
2019-04-04T14:53:52.530Z,98688.41
2019-04-04T14:56:54.449Z,98689.14
2019-04-04T14:59:56.540Z,98695.85
2019-04-04T15:02:58.436Z,98691.16
2019-04-04T15:06:00.463Z,98689.84
2019-04-04T15:09:04.775Z,98709.05
2019-04-04T15:12:07.030Z,98691.17
2019-04-04T15:15:08.996Z,98692.70
2019-04-04T15:18:11.030Z,98705.98
2019-04-04T15:21:13.974Z,98702.48
2019-04-04T15:24:16.084Z,98698.10
2019-04-04T15:27:18.115Z,98702.16
2019-04-04T15:30:20.883Z,98703.98
2019-04-04T15:33:22.830Z,98705.98
2019-04-04T15:36:24.850Z,98715.47
2019-04-04T15:39:26.832Z,98705.91
2019-04-04T15:42:28.887Z,98701.26
2019-04-04T15:45:30.839Z,98704.30
2019-04-04T15:48:32.873Z,98704.30
2019-04-04T15:51:34.857Z,98731.81
2019-04-04T15:54:36.899Z,98721.50
2019-04-04T15:57:38.851Z,98727.00
2019-04-04T16:00:40.939Z,98727.90
2019-04-04T16:03:42.849Z,98729.37
2019-04-04T16:06:44.829Z,98732.58
2019-04-04T16:09:46.755Z,98740.38
2019-04-04T16:12:48.768Z,98736.78
2019-04-04T16:15:50.727Z,98740.24
2019-04-04T16:18:52.728Z,98738.57
2019-04-04T16:21:54.642Z,98737.09
2019-04-04T16:24:56.654Z,98736.83
2019-04-04T16:27:58.598Z,98735.53
2019-04-04T16:31:00.812Z,98737.41
2019-04-04T16:34:02.733Z,98738.02
2019-04-04T16:37:04.770Z,98744.92
2019-04-04T16:40:09.289Z,98742.14
2019-04-04T16:43:11.767Z,98747.15
2019-04-04T16:46:13.695Z,98743.27
2019-04-04T16:49:15.689Z,98748.27
2019-04-04T16:52:17.631Z,98750.56
2019-04-04T16:55:19.644Z,98761.78
2019-04-04T16:58:21.572Z,98757.90
2019-04-04T17:01:23.610Z,98763.23
2019-04-04T17:04:25.641Z,98766.48
2019-04-04T17:07:27.611Z,98774.28
2019-04-04T17:10:31.518Z,98778.77
2019-04-04T17:13:33.484Z,98777.27
2019-04-04T17:16:35.464Z,98780.23
2019-04-04T17:19:37.444Z,98775.52
2019-04-04T17:22:41.183Z,98775.20
2019-04-04T17:25:43.519Z,98772.92
2019-04-04T17:28:45.766Z,98785.09
2019-04-04T17:31:50.284Z,98790.22
2019-04-04T17:34:52.613Z,98797.70
2019-04-04T17:37:54.609Z,98791.52
2019-04-04T17:40:56.971Z,98799.72
2019-04-04T17:43:59.101Z,98805.10
2019-04-04T17:47:02.126Z,98808.83
2019-04-04T17:50:08.955Z,98814.97
2019-04-04T17:53:10.994Z,98812.77
2019-04-04T17:56:13.357Z,98818.20
2019-04-04T17:59:16.838Z,98820.88
2019-04-04T18:02:18.983Z,98833.58
2019-04-04T18:05:22.536Z,98834.23
2019-04-04T18:08:25.899Z,98833.39
2019-04-04T18:11:27.859Z,98843.78
2019-04-04T18:14:33.802Z,98844.51
2019-04-04T18:17:37.182Z,98843.71
2019-04-04T18:20:41.382Z,98847.42
2019-04-04T18:23:43.377Z,98846.25
2019-04-04T18:26:46.434Z,98847.30
2019-04-04T18:29:48.654Z,98853.66
2019-04-04T18:32:53.342Z,98863.82
2019-04-04T18:35:55.828Z,98861.72
2019-04-04T18:38:57.803Z,98866.03
2019-04-04T18:41:59.786Z,98869.59
2019-04-04T18:45:06.118Z,98871.52
2019-04-04T18:48:09.910Z,98868.48
2019-04-04T18:51:12.784Z,98864.78
2019-04-04T18:54:14.750Z,98865.97
2019-04-04T18:57:17.324Z,98875.08
2019-04-04T19:00:22.990Z,98868.23
2019-04-04T19:03:29.577Z,98873.13
2019-04-04T19:06:31.426Z,98871.08
2019-04-04T19:09:33.783Z,98870.31
2019-04-04T19:12:40.679Z,98871.74
2019-04-04T19:15:44.633Z,98869.41
2019-04-04T19:18:48.941Z,98869.31
2019-04-04T19:21:52.814Z,98874.14
2019-04-04T19:24:56.953Z,98864.61
2019-04-04T19:28:01.931Z,98869.94
2019-04-04T19:31:05.951Z,98867.68
2019-04-04T19:34:08.411Z,98867.94
2019-04-04T19:37:10.432Z,98874.34
2019-04-04T19:40:13.915Z,98877.98
2019-04-04T19:43:18.155Z,98880.92
2019-04-04T19:46:19.866Z,98891.47
2019-04-04T19:49:22.399Z,98885.64
2019-04-04T19:52:24.961Z,98885.91
2019-04-04T19:55:27.050Z,98889.86
2019-04-04T19:58:29.432Z,98898.31
2019-04-04T20:01:31.531Z,98896.87
2019-04-04T20:04:37.024Z,98895.77
2019-04-04T20:07:40.122Z,98903.16
2019-04-04T20:10:43.373Z,98902.06
2019-04-04T20:13:45.348Z,98899.42
2019-04-04T20:16:47.906Z,98904.84
2019-04-04T20:19:49.874Z,98911.54
2019-04-04T20:22:51.826Z,98909.67
2019-04-04T20:25:54.358Z,98920.27
2019-04-04T20:28:56.313Z,98914.95
2019-04-04T20:31:58.320Z,98913.30
2019-04-04T20:35:00.411Z,98917.16
2019-04-04T20:38:04.097Z,98920.27
2019-04-04T20:41:07.887Z,98920.48
2019-04-04T20:44:09.865Z,98926.24
2019-04-04T20:47:11.895Z,98939.70
2019-04-04T20:50:13.789Z,98941.69
2019-04-04T20:53:15.760Z,98945.52
2019-04-04T20:56:17.735Z,98947.33
2019-04-04T20:59:19.740Z,98946.75
2019-04-04T21:02:21.643Z,98945.31
2019-04-04T21:05:23.787Z,98952.45
2019-04-04T21:08:25.779Z,98948.47
2019-04-04T21:11:28.710Z,98945.25
2019-04-04T21:14:30.644Z,98943.05
2019-04-04T21:17:32.666Z,98952.50
2019-04-04T21:20:34.579Z,98951.30
2019-04-04T21:23:36.602Z,98946.22
2019-04-04T21:26:39.627Z,98949.91
2019-04-04T21:29:41.678Z,98951.95
2019-04-04T21:32:43.575Z,98953.32
2019-04-04T21:35:45.716Z,98955.66
2019-04-04T21:38:47.652Z,98962.05
2019-04-04T21:41:50.984Z,98957.45
2019-04-04T21:44:53.006Z,98958.48
2019-04-04T21:47:55.031Z,98959.03
2019-04-04T21:50:56.960Z,98963.45
2019-04-04T21:53:58.882Z,98955.15
2019-04-04T21:57:00.794Z,98971.79
2019-04-04T22:00:06.195Z,98964.77
2019-04-04T22:03:09.954Z,98974.44
2019-04-04T22:06:11.979Z,98961.40
2019-04-04T22:09:15.711Z,98963.90
2019-04-04T22:12:17.808Z,98967.97
2019-04-04T22:15:19.795Z,98975.03
2019-04-04T22:18:21.832Z,98972.11
2019-04-04T22:21:23.782Z,98971.36
2019-04-04T22:24:25.750Z,98969.87
2019-04-04T22:27:27.739Z,98967.74
2019-04-04T22:30:29.746Z,98971.13
2019-04-04T22:33:31.707Z,98969.81
2019-04-04T22:36:33.859Z,98971.42
2019-04-04T22:39:35.834Z,98973.03
2019-04-04T22:42:37.871Z,98973.98
2019-04-04T22:45:39.910Z,98971.23
2019-04-04T22:48:41.931Z,98976.98
2019-04-04T22:51:43.866Z,98982.13
2019-04-04T22:54:45.911Z,98977.49
2019-04-04T22:57:47.831Z,98976.53
2019-04-04T23:00:49.878Z,98977.48
2019-04-04T23:03:51.792Z,98984.48
2019-04-04T23:06:53.904Z,98978.23
2019-04-04T23:09:55.821Z,98972.91
2019-04-04T23:12:57.747Z,98971.98
2019-04-04T23:15:59.713Z,98974.74
2019-04-04T23:19:01.722Z,98974.74
2019-04-04T23:22:03.679Z,98977.25
2019-04-04T23:25:08.761Z,98971.81
2019-04-04T23:28:11.618Z,98972.11
2019-04-04T23:31:13.633Z,98968.61
2019-04-04T23:34:15.555Z,98969.69
2019-04-04T23:37:17.761Z,98970.49
2019-04-04T23:40:19.666Z,98968.61
2019-04-04T23:43:21.672Z,98973.25
2019-04-04T23:46:23.627Z,98968.84
2019-04-04T23:49:25.591Z,98973.88
2019-04-04T23:52:27.642Z,98969.12
2019-04-04T23:55:29.636Z,98974.63
2019-04-04T23:58:31.556Z,98969.42
